Time;durP1;ratioP1;P1;durP2;ratioP2;P2;SDS_P1;SDS_P2;PMS_P1;PMS_P2;Temp;Humidity;BMP_temperature;BMP_pressure;BME280_temperature;BME280_humidity;BME280_pressure;Samples;Min_cycle;Max_cycle;Signal;HPM_P1;HPM_P2
2022/04/19 00:00:07;;;;;;;5.68;2.33;;;;;;;5.35;63.14;96226.50;2087755;28;20204;-63
2022/04/19 00:01:10;;;;;;;6.10;2.03;;;;;;;5.61;63.21;96283.16;2085459;28;20216;-63
2022/04/19 00:02:11;;;;;;;6.97;2.55;;;;;;;5.59;63.27;96275.44;2087812;28;20315;-63
2022/04/19 00:03:14;;;;;;;4.47;1.77;;;;;;;5.58;63.48;96281.56;2088765;28;20197;-63
2022/04/19 00:04:19;;;;;;;4.90;2.28;;;;;;;5.46;63.74;96284.81;2086016;28;20192;-63
2022/04/19 00:05:21;;;;;;;4.53;2.55;;;;;;;5.38;63.92;96271.41;2086095;28;20808;-63
2022/04/19 00:06:22;;;;;;;5.82;3.00;;;;;;;5.43;63.80;96277.19;2085204;28;20643;-63
2022/04/19 00:07:24;;;;;;;5.82;2.45;;;;;;;5.30;64.25;96274.41;2086464;28;20192;-63
2022/04/19 00:08:26;;;;;;;5.70;2.33;;;;;;;5.23;64.19;96267.84;2087429;28;20201;-63
2022/04/19 00:09:28;;;;;;;5.20;2.50;;;;;;;5.23;64.45;96273.03;2079158;28;20208;-63
2022/04/19 00:10:29;;;;;;;4.60;2.60;;;;;;;5.21;64.52;96272.28;2076542;28;20768;-64
2022/04/19 00:11:31;;;;;;;3.67;2.33;;;;;;;5.15;64.26;96237.97;2084552;28;20672;-63
2022/04/19 00:12:32;;;;;;;4.80;2.65;;;;;;;5.34;64.29;96268.97;2083545;28;20193;-65
2022/04/19 00:13:34;;;;;;;4.50;2.75;;;;;;;5.32;63.83;96251.78;2084426;28;20597;-65
2022/04/19 00:14:35;;;;;;;7.65;2.47;;;;;;;5.35;64.16;96267.19;2085589;28;20680;-62
2022/04/19 00:15:38;;;;;;;7.03;2.50;;;;;;;5.35;64.26;96269.78;2085222;28;20716;-62
2022/04/19 00:16:40;;;;;;;5.15;2.28;;;;;;;5.27;64.44;96267.63;2086387;28;20720;-62
2022/04/19 00:17:42;;;;;;;5.32;2.55;;;;;;;4.84;64.92;96219.69;2087883;28;20196;-62
2022/04/19 00:18:44;;;;;;;4.22;2.38;;;;;;;5.23;64.73;96267.84;2082974;28;20195;-62
2022/04/19 00:19:45;;;;;;;4.65;2.15;;;;;;;5.12;65.12;96260.63;2084722;28;20215;-63
2022/04/19 00:20:47;;;;;;;5.05;2.65;;;;;;;5.07;65.02;96268.66;2086673;28;20798;-62
2022/04/19 00:21:48;;;;;;;3.92;1.92;;;;;;;5.12;64.76;96255.44;2086780;28;20684;-62
2022/04/19 00:22:50;;;;;;;4.68;2.58;;;;;;;5.13;65.28;96257.09;2085401;28;20208;-62
2022/04/19 00:23:53;;;;;;;4.80;2.15;;;;;;;5.32;64.66;96265.59;2085570;28;20201;-62
2022/04/19 00:24:56;;;;;;;9.10;2.28;;;;;;;5.20;64.62;96248.09;2080413;28;20194;-62
2022/04/19 00:25:57;;;;;;;4.43;2.80;;;;;;;5.27;64.76;96256.38;2080034;28;20216;-62
2022/04/19 00:26:59;;;;;;;4.43;2.03;;;;;;;5.05;64.73;96233.31;2086875;28;20193;-62
2022/04/19 00:28:00;;;;;;;5.43;2.38;;;;;;;5.10;64.69;96239.94;2085091;28;20196;-62
2022/04/19 00:29:02;;;;;;;3.95;1.90;;;;;;;5.16;64.66;96251.78;2083870;28;20647;-62
2022/04/19 00:30:04;;;;;;;4.35;2.30;;;;;;;5.10;65.01;96254.69;2086573;28;20650;-62
2022/04/19 00:31:05;;;;;;;4.72;2.55;;;;;;;5.12;64.87;96252.84;2085400;28;20232;-62
2022/04/19 00:32:10;;;;;;;6.55;2.28;;;;;;;5.07;64.98;96247.06;2085893;28;20204;-62
2022/04/19 00:33:12;;;;;;;4.85;2.08;;;;;;;4.92;65.01;96220.13;2084198;28;20197;-62
2022/04/19 00:34:15;;;;;;;5.95;2.72;;;;;;;5.04;65.09;96249.81;2083420;28;20204;-62
2022/04/19 00:35:16;;;;;;;4.45;2.22;;;;;;;5.02;65.11;96241.25;2083651;28;20208;-63
2022/04/19 00:36:18;;;;;;;3.88;2.30;;;;;;;5.03;65.27;96243.78;2084705;28;20193;-62
2022/04/19 00:37:19;;;;;;;5.32;2.40;;;;;;;4.80;65.28;96206.03;2084876;28;20664;-62
2022/04/19 00:38:22;;;;;;;4.55;2.08;;;;;;;4.94;65.58;96247.69;2085696;28;20200;-62
2022/04/19 00:39:23;;;;;;;8.00;2.45;;;;;;;4.95;65.45;96248.53;2085612;28;20191;-62
2022/04/19 00:40:26;;;;;;;4.50;1.88;;;;;;;4.91;65.36;96240.06;2079774;28;20193;-63
2022/04/19 00:41:27;;;;;;;7.53;2.20;;;;;;;4.97;65.50;96241.50;2080072;28;20197;-62
2022/04/19 00:42:29;;;;;;;3.63;2.05;;;;;;;4.93;65.32;96242.59;2085408;28;20205;-62
2022/04/19 00:43:31;;;;;;;5.57;2.15;;;;;;;5.00;65.24;96243.09;2085841;28;20641;-62
2022/04/19 00:44:37;;;;;;;3.28;1.80;;;;;;;4.92;64.96;96226.19;2085490;28;20200;-62
2022/04/19 00:45:38;;;;;;;3.25;1.75;;;;;;;4.89;65.42;96236.72;2085812;28;20703;-63
2022/04/19 00:46:40;;;;;;;4.40;2.22;;;;;;;4.89;65.31;96233.28;2086134;28;20200;-62
2022/04/19 00:47:41;;;;;;;6.40;2.40;;;;;;;4.91;64.91;96240.06;2084408;28;20335;-63
2022/04/19 00:48:43;;;;;;;3.85;1.90;;;;;;;4.64;65.64;96215.53;2084437;28;20207;-62
2022/04/19 00:49:44;;;;;;;3.95;2.33;;;;;;;4.44;66.21;96182.84;2086898;28;20200;-63
2022/04/19 00:50:47;;;;;;;2.85;2.00;;;;;;;4.71;66.41;96243.69;2085075;28;20221;-63
2022/04/19 00:51:49;;;;;;;4.28;2.67;;;;;;;4.65;66.37;96231.03;2086127;28;20203;-62
2022/04/19 00:52:51;;;;;;;3.22;1.98;;;;;;;4.72;66.22;96236.72;2087729;28;20203;-62
2022/04/19 00:53:54;;;;;;;5.43;2.55;;;;;;;4.76;66.04;96230.47;2087093;28;20193;-62
2022/04/19 00:54:55;;;;;;;3.92;1.98;;;;;;;4.76;66.14;96235.66;2085734;28;20560;-62
2022/04/19 00:55:57;;;;;;;3.90;1.83;;;;;;;4.77;66.20;96232.16;2083055;28;20238;-62
2022/04/19 00:56:59;;;;;;;4.75;2.13;;;;;;;4.60;66.06;96209.66;2086695;28;20590;-62
2022/04/19 00:58:01;;;;;;;5.50;2.50;;;;;;;4.67;66.24;96225.78;2084987;28;20207;-62
2022/04/19 00:59:03;;;;;;;3.38;2.05;;;;;;;4.71;66.15;96227.28;2084378;28;20801;-62
2022/04/19 01:00:08;;;;;;;4.78;2.38;;;;;;;4.68;66.33;96222.25;2085843;28;20211;-62
2022/04/19 01:01:10;;;;;;;6.05;2.25;;;;;;;4.49;66.20;96192.06;2081515;28;20223;-62
2022/04/19 01:02:12;;;;;;;4.35;2.35;;;;;;;4.60;66.52;96220.03;2084295;28;20229;-62
2022/04/19 01:03:13;;;;;;;5.90;1.85;;;;;;;4.51;66.82;96216.19;2085143;28;20236;-62
2022/04/19 01:04:15;;;;;;;3.15;2.03;;;;;;;4.55;66.41;96212.50;2084535;28;20211;-62
2022/04/19 01:05:16;;;;;;;2.92;1.73;;;;;;;4.66;66.52;96214.53;2084001;28;20207;-62
2022/04/19 01:06:18;;;;;;;2.78;1.63;;;;;;;4.60;66.69;96211.44;2084403;28;20197;-62
2022/04/19 01:07:21;;;;;;;2.38;1.67;;;;;;;4.55;66.92;96203.91;2085179;28;20656;-62
2022/04/19 01:08:23;;;;;;;5.50;2.45;;;;;;;4.64;66.67;96218.13;2085405;28;20639;-62
2022/04/19 01:09:25;;;;;;;8.90;2.42;;;;;;;4.59;66.42;96220.97;2076363;28;20651;-62
2022/04/19 01:10:26;;;;;;;4.20;2.15;;;;;;;4.56;66.31;96213.34;2075654;28;20640;-62
2022/04/19 01:14:09;;;;;;;6.65;2.10;;;;;;;4.37;67.33;96210.81;2084920;28;20258;-62
2022/04/19 01:15:13;;;;;;;7.35;2.30;;;;;;;4.20;67.18;96184.94;2086599;28;20212;-62
2022/04/19 01:16:16;;;;;;;3.28;1.85;;;;;;;4.31;67.40;96219.78;2085156;28;20220;-62
2022/04/19 01:17:17;;;;;;;3.75;2.05;;;;;;;4.13;67.83;96202.53;2084581;28;20212;-62
2022/04/19 01:18:24;;;;;;;8.07;2.45;;;;;;;4.23;68.00;96218.47;2086425;28;20204;-63
2022/04/19 01:19:26;;;;;;;5.15;2.85;;;;;;;4.28;67.68;96203.53;2086011;28;20442;-62
2022/04/19 01:20:28;;;;;;;5.68;1.85;;;;;;;4.38;67.30;96207.34;2083756;28;20200;-62
2022/04/19 01:21:54;;;;;;;5.13;2.30;;;;;;;4.42;67.05;96202.84;2084179;28;20207;-62
2022/04/19 01:22:55;;;;;;;3.53;2.42;;;;;;;4.42;66.76;96205.44;2086046;28;20284;-62
2022/04/19 01:23:57;;;;;;;8.82;2.42;;;;;;;4.38;66.99;96207.34;2083318;28;20670;-62
2022/04/19 01:24:58;;;;;;;5.03;2.53;;;;;;;4.29;67.33;96216.41;2080068;28;20296;-62
2022/04/19 01:26:00;;;;;;;5.00;2.22;;;;;;;4.04;67.43;96182.25;2079574;28;20610;-62
2022/04/19 01:27:03;;;;;;;5.28;2.45;;;;;;;4.13;67.53;96203.34;2083870;28;20284;-62
2022/04/19 01:28:04;;;;;;;3.83;2.45;;;;;;;4.28;67.07;96209.53;2084394;28;20212;-62
2022/04/19 01:29:06;;;;;;;5.65;1.90;;;;;;;4.13;67.57;96195.56;2085169;28;20277;-62
2022/04/19 01:30:08;;;;;;;6.88;2.33;;;;;;;4.21;67.46;96207.34;2085904;28;20200;-62
2022/04/19 01:31:11;;;;;;;5.10;2.40;;;;;;;4.19;67.61;96209.16;2086474;28;20227;-63
2022/04/19 01:32:14;;;;;;;5.60;2.65;;;;;;;4.23;67.75;96210.69;2085564;28;20195;-62
2022/04/19 01:33:15;;;;;;;5.97;3.30;;;;;;;4.09;67.84;96209.59;2083829;28;20196;-62
2022/04/19 01:34:18;;;;;;;7.95;2.50;;;;;;;4.12;67.94;96219.84;2085376;28;20279;-62
2022/04/19 01:35:21;;;;;;;7.07;2.10;;;;;;;4.15;67.91;96213.66;2084602;28;20205;-62
2022/04/19 01:36:23;;;;;;;4.22;2.38;;;;;;;4.24;67.22;96208.03;2085826;28;20694;-62
2022/04/19 01:37:25;;;;;;;5.63;3.38;;;;;;;4.21;67.33;96205.56;2087139;28;20207;-62
2022/04/19 01:38:27;;;;;;;6.38;2.72;;;;;;;4.10;67.69;96200.94;2087141;28;20223;-62
2022/04/19 01:40:49;;;;;;;3.45;2.00;;;;;;;4.11;67.58;96199.16;2079346;28;20228;-62
2022/04/19 01:41:50;;;;;;;4.65;2.05;;;;;;;4.01;68.14;96196.19;2084861;28;20201;-62
2022/04/19 01:43:01;;;;;;;7.80;2.70;;;;;;;3.99;68.29;96197.19;2085477;28;20192;-62
2022/04/19 01:44:05;;;;;;;7.60;3.45;;;;;;;3.94;68.60;96198.25;2086349;28;20215;-62
2022/04/19 01:45:07;;;;;;;4.22;2.40;;;;;;;4.07;68.12;96193.28;2087020;28;20216;-62
2022/04/19 01:46:09;;;;;;;5.63;2.67;;;;;;;4.13;67.84;96193.00;2086102;28;20223;-62
2022/04/19 01:47:11;;;;;;;7.82;2.40;;;;;;;4.12;67.95;96196.50;2084622;28;20283;-62
2022/04/19 01:48:12;;;;;;;6.68;2.90;;;;;;;4.13;67.94;96194.75;2078825;28;20204;-62
2022/04/19 01:49:14;;;;;;;4.32;2.75;;;;;;;4.07;68.15;96187.28;2079759;28;20557;-62
2022/04/19 01:50:20;;;;;;;5.80;2.75;;;;;;;4.07;68.44;96193.28;2085071;28;20234;-62
2022/04/19 01:51:22;;;;;;;4.90;2.47;;;;;;;4.03;68.57;96190.94;2084535;28;20202;-62
2022/04/19 01:52:23;;;;;;;4.50;3.10;;;;;;;4.00;68.66;96191.06;2085226;28;20289;-62
2022/04/19 01:53:25;;;;;;;4.63;2.75;;;;;;;3.98;68.67;96191.19;2086935;28;20201;-62
2022/04/19 01:54:26;;;;;;;8.02;3.00;;;;;;;3.94;68.91;96189.66;2085285;28;20203;-62
2022/04/19 01:55:28;;;;;;;5.03;2.72;;;;;;;3.81;69.17;96183.38;2083023;28;20209;-62
2022/04/19 01:56:29;;;;;;;4.38;3.00;;;;;;;3.88;69.04;96183.00;2084029;28;20700;-62
2022/04/19 01:57:31;;;;;;;9.07;2.90;;;;;;;3.94;68.98;96187.06;2085259;28;20571;-62
2022/04/19 01:58:33;;;;;;;4.22;3.03;;;;;;;3.98;68.68;96183.41;2085760;28;20206;-63
2022/04/19 01:59:34;;;;;;;6.07;3.00;;;;;;;3.92;68.51;96170.72;2084926;28;20201;-62
2022/04/19 02:00:35;;;;;;;4.68;3.05;;;;;;;4.04;68.53;96190.00;2085394;28;20220;-62
2022/04/19 02:01:37;;;;;;;4.75;2.88;;;;;;;4.00;68.61;96191.94;2084787;28;20201;-62
2022/04/19 02:02:40;;;;;;;5.68;3.30;;;;;;;3.78;68.87;96161.03;2079297;28;20192;-62
2022/04/19 02:03:42;;;;;;;6.10;3.17;;;;;;;3.95;69.03;96192.16;2079766;28;20737;-63
2022/04/19 02:04:43;;;;;;;4.72;2.45;;;;;;;3.90;69.06;96175.16;2084982;28;20239;-62
2022/04/19 02:05:46;;;;;;;3.88;2.70;;;;;;;3.91;69.22;96184.59;2081640;28;20601;-62
2022/04/19 02:06:47;;;;;;;4.85;2.95;;;;;;;3.87;69.43;96185.66;2085800;28;20199;-62
2022/04/19 02:07:49;;;;;;;6.40;2.40;;;;;;;3.91;69.39;96187.19;2084790;28;20656;-62
2022/04/19 02:08:51;;;;;;;8.60;3.88;;;;;;;3.42;69.62;96119.66;2076665;28;20902;-62
2022/04/19 02:09:52;;;;;;;5.00;2.72;;;;;;;3.87;69.58;96180.50;2076140;28;20208;-62
2022/04/19 02:10:54;;;;;;;6.15;2.50;;;;;;;3.81;69.70;96194.56;2084816;28;20222;-62
2022/04/19 02:11:55;;;;;;;7.45;3.20;;;;;;;3.81;69.76;96185.97;2086042;28;20200;-62
2022/04/19 02:12:57;;;;;;;7.90;3.40;;;;;;;3.58;70.34;96174.13;2085054;28;20200;-62
2022/04/19 02:13:59;;;;;;;4.18;2.63;;;;;;;3.55;70.50;96181.13;2082628;28;20197;-62
2022/04/19 02:15:01;;;;;;;5.90;2.85;;;;;;;3.64;70.31;96187.59;2083010;28;20189;-62
2022/04/19 02:16:02;;;;;;;3.35;2.47;;;;;;;3.64;70.37;96187.59;2083178;28;20217;-62
2022/04/19 02:17:04;;;;;;;9.73;3.67;;;;;;;3.54;69.98;96163.06;2085214;28;20205;-62
2022/04/19 02:18:06;;;;;;;10.07;3.13;;;;;;;3.66;70.38;96185.78;2084713;28;20196;-62
2022/04/19 02:19:08;;;;;;;4.93;2.78;;;;;;;3.69;70.08;96179.63;2083158;28;20197;-62
2022/04/19 02:20:10;;;;;;;4.60;2.67;;;;;;;3.63;69.75;96175.59;2083644;28;20193;-62
2022/04/19 02:21:11;;;;;;;6.15;2.45;;;;;;;3.68;70.04;96183.94;2083243;28;20589;-62
2022/04/19 02:22:13;;;;;;;8.13;2.40;;;;;;;3.75;69.31;96182.75;2072375;28;20208;-62
2022/04/19 02:23:15;;;;;;;5.88;2.80;;;;;;;3.64;69.40;96185.00;2075963;28;20208;-62
2022/04/19 02:24:17;;;;;;;4.75;2.75;;;;;;;3.65;69.39;96183.28;2085364;28;20196;-62
2022/04/19 02:25:18;;;;;;;4.30;2.28;;;;;;;3.53;69.62;96158.81;2084694;28;20200;-62
2022/04/19 02:26:23;;;;;;;3.75;2.25;;;;;;;3.59;69.97;96188.72;2083864;28;20200;-62
2022/04/19 02:27:31;;;;;;;6.07;2.33;;;;;;;3.64;69.78;96182.44;2082627;28;20208;-62
2022/04/19 02:28:32;;;;;;;5.88;2.47;;;;;;;3.29;70.29;96166.84;2086472;28;20209;-62
2022/04/19 02:29:34;;;;;;;6.18;2.72;;;;;;;3.35;70.88;96182.06;2082132;28;20567;-62
2022/04/19 02:30:36;;;;;;;4.30;2.47;;;;;;;3.47;70.42;96187.56;2081069;28;20220;-62
2022/04/19 02:31:38;;;;;;;4.28;2.58;;;;;;;3.56;70.24;96189.72;2086557;28;20643;-62
2022/04/19 02:32:48;;;;;;;4.18;2.30;;;;;;;3.49;70.00;96178.84;2085516;28;20676;-62
2022/04/19 02:33:49;;;;;;;4.68;2.50;;;;;;;3.54;70.20;96181.19;2084140;28;20659;-62
2022/04/19 02:34:51;;;;;;;3.92;2.20;;;;;;;3.60;69.90;96185.25;2085246;28;20209;-62
2022/04/19 02:35:53;;;;;;;4.45;2.60;;;;;;;3.54;69.88;96181.19;2085290;28;20453;-62
2022/04/19 02:36:54;;;;;;;5.40;3.20;;;;;;;3.58;70.10;96182.72;2085777;28;20201;-62
2022/04/19 02:37:58;;;;;;;3.72;2.53;;;;;;;3.55;70.37;96178.53;2086345;28;20200;-62
2022/04/19 02:39:01;;;;;;;6.72;2.88;;;;;;;3.46;70.58;96167.78;2086797;28;20193;-62
2022/04/19 02:40:03;;;;;;;5.95;2.40;;;;;;;3.47;70.91;96183.25;2081971;28;20197;-62
2022/04/19 02:41:05;;;;;;;6.07;3.05;;;;;;;3.43;70.93;96170.50;2080878;28;20607;-62
2022/04/19 02:42:08;;;;;;;4.10;2.30;;;;;;;3.54;70.82;96178.59;2082331;28;20310;-62
2022/04/19 02:43:11;;;;;;;6.25;2.42;;;;;;;3.38;70.70;96162.97;2085818;28;20663;-62
2022/04/19 02:44:13;;;;;;;4.40;2.47;;;;;;;3.48;70.50;96165.94;2084476;28;20200;-62
2022/04/19 02:45:14;;;;;;;5.55;2.13;;;;;;;3.46;70.64;96162.59;2086478;28;20189;-62
2022/04/19 02:46:16;;;;;;;6.20;2.38;;;;;;;3.44;70.51;96167.84;2087190;28;20207;-62
2022/04/19 02:47:18;;;;;;;5.25;2.50;;;;;;;3.49;70.53;96168.47;2084428;28;20277;-62
2022/04/19 02:48:21;;;;;;;4.07;2.75;;;;;;;3.62;70.06;96163.53;2084728;28;20217;-62
2022/04/19 02:49:23;;;;;;;5.15;2.85;;;;;;;3.59;70.22;96171.47;2085831;28;20204;-62
2022/04/19 02:50:27;;;;;;;8.45;2.70;;;;;;;3.62;69.89;96157.53;2083595;28;20649;-62
2022/04/19 02:51:28;;;;;;;7.97;2.65;;;;;;;3.77;69.50;96164.56;2082963;28;20674;-62
2022/04/19 02:52:29;;;;;;;4.40;2.45;;;;;;;3.55;70.01;96147.47;2084833;28;20197;-62
2022/04/19 02:53:32;;;;;;;5.00;2.92;;;;;;;3.55;70.18;96160.41;2083265;28;21091;-62
2022/04/19 02:54:34;;;;;;;6.85;2.72;;;;;;;3.47;70.44;96162.53;2084842;28;20192;-62
2022/04/19 02:55:42;;;;;;;5.43;2.80;;;;;;;3.41;70.76;96161.97;2082667;28;20229;-62
2022/04/19 02:56:43;;;;;;;6.78;2.30;;;;;;;3.38;70.65;96151.78;2082366;28;20193;-62
2022/04/19 02:57:45;;;;;;;4.80;2.97;;;;;;;3.23;70.80;96124.84;2077607;28;20337;-62
2022/04/19 02:58:46;;;;;;;6.10;3.00;;;;;;;3.40;70.95;96158.53;2079594;28;20200;-62
2022/04/19 02:59:48;;;;;;;5.32;2.40;;;;;;;3.43;71.36;96160.13;2085358;28;20208;-62
2022/04/19 03:00:49;;;;;;;7.38;2.10;;;;;;;3.43;71.17;96161.00;2086424;28;20234;-62
2022/04/19 03:01:51;;;;;;;5.03;2.17;;;;;;;3.07;71.09;96093.69;2086428;28;20247;-62
2022/04/19 03:02:53;;;;;;;7.90;2.88;;;;;;;3.37;71.06;96148.31;2087283;28;20583;-62
2022/04/19 03:03:55;;;;;;;4.30;2.15;;;;;;;3.21;71.41;96155.13;2084700;28;20201;-62
2022/04/19 03:04:56;;;;;;;5.50;2.70;;;;;;;3.19;71.40;96152.63;2086993;28;20236;-62
2022/04/19 03:05:58;;;;;;;5.13;2.88;;;;;;;3.26;71.07;96156.59;2086791;28;20224;-62
2022/04/19 03:06:59;;;;;;;6.40;3.35;;;;;;;3.07;71.39;96140.25;2083912;28;20613;-62
2022/04/19 03:08:01;;;;;;;5.22;2.45;;;;;;;2.90;72.29;96153.94;2085860;28;20200;-62
2022/04/19 03:09:02;;;;;;;9.82;3.30;;;;;;;2.76;72.85;96152.00;2084536;28;20569;-62
2022/04/19 03:10:06;;;;;;;5.72;2.83;;;;;;;3.00;72.08;96159.53;2082298;28;20215;-62
2022/04/19 03:11:07;;;;;;;4.43;2.30;;;;;;;2.69;71.88;96115.22;2083620;28;20286;-62
2022/04/19 03:12:15;;;;;;;5.40;2.65;;;;;;;2.95;71.80;96160.59;2085869;28;20205;-62
2022/04/19 03:13:17;;;;;;;4.32;2.60;;;;;;;2.94;72.05;96163.25;2084805;28;20539;-62
2022/04/19 03:14:19;;;;;;;5.28;2.60;;;;;;;2.92;71.97;96157.31;2083964;28;20220;-62
2022/04/19 03:15:21;;;;;;;6.38;3.05;;;;;;;2.84;71.92;96131.78;2084962;28;20197;-62
2022/04/19 03:16:22;;;;;;;5.93;3.05;;;;;;;3.10;71.33;96140.13;2083071;28;20208;-62
2022/04/19 03:17:24;;;;;;;4.60;2.90;;;;;;;3.16;71.10;96150.19;2084411;28;20203;-62
2022/04/19 03:18:25;;;;;;;5.57;2.80;;;;;;;3.17;70.96;96144.94;2085234;28;20200;-62
2022/04/19 03:19:27;;;;;;;7.28;2.95;;;;;;;3.27;70.64;96150.50;2085296;28;20200;-62
2022/04/19 03:20:28;;;;;;;9.23;2.80;;;;;;;2.96;71.03;96115.72;2085265;28;20196;-62
2022/04/19 03:21:30;;;;;;;6.65;2.78;;;;;;;3.07;71.48;96156.59;2085060;28;20539;-62
2022/04/19 03:27:41;;;;;;;5.10;2.72;;;;;;;3.04;71.63;96146.41;2084476;28;20193;-62
2022/04/19 03:27:52;;;;;;;3.40;2.78;;;;;;;2.97;72.09;96132.06;2085292;28;20208;-62
2022/04/19 03:28:54;;;;;;;3.97;2.55;;;;;;;2.94;72.14;96145.13;2084117;28;20196;-62
2022/04/19 03:29:55;;;;;;;4.78;2.35;;;;;;;2.99;72.10;96147.53;2083262;28;20205;-63
2022/04/19 03:30:57;;;;;;;2.88;2.10;;;;;;;2.99;72.33;96143.19;2082267;28;20216;-62
2022/04/19 03:31:59;;;;;;;5.13;2.40;;;;;;;2.96;72.47;96144.19;2082615;28;20740;-62
2022/04/19 03:33:01;;;;;;;4.88;2.13;;;;;;;2.90;72.94;96144.47;2082029;28;20250;-62
2022/04/19 03:34:04;;;;;;;6.70;2.70;;;;;;;2.36;72.97;96065.88;2082980;28;20551;-62
2022/04/19 03:35:06;;;;;;;3.97;2.30;;;;;;;2.90;73.01;96141.03;2088517;28;20211;-62
2022/04/19 03:36:08;;;;;;;4.97;2.70;;;;;;;2.90;72.85;96144.47;2088378;28;20224;-62
2022/04/19 03:37:10;;;;;;;3.95;2.58;;;;;;;2.90;73.09;96135.84;2087030;28;20647;-62
2022/04/19 03:38:12;;;;;;;2.90;2.15;;;;;;;2.87;72.92;96138.59;2088367;28;20196;-63
2022/04/19 03:39:13;;;;;;;3.40;2.42;;;;;;;2.91;72.80;96142.72;2087569;28;20196;-62
2022/04/19 03:40:15;;;;;;;6.78;2.40;;;;;;;2.53;73.17;96091.00;2085481;28;20208;-62
2022/04/19 03:41:16;;;;;;;5.68;2.40;;;;;;;2.72;73.22;96134.94;2077143;28;20197;-62
2022/04/19 03:42:24;;;;;;;9.80;2.40;;;;;;;2.86;72.78;96147.25;2078546;28;20193;-62
2022/04/19 03:43:26;;;;;;;2.83;1.98;;;;;;;2.52;72.96;96087.53;2086510;28;20203;-62
2022/04/19 03:44:31;;;;;;;3.20;2.60;;;;;;;2.72;72.95;96124.59;2087030;28;20200;-62
2022/04/19 03:45:32;;;;;;;3.72;2.20;;;;;;;2.85;73.03;96141.25;2085639;28;20232;-62
2022/04/19 03:47:07;;;;;;;3.53;2.55;;;;;;;2.58;73.09;96109.69;2086562;28;20188;-62
2022/04/19 03:47:55;;;;;;;4.25;2.33;;;;;;;2.74;73.17;96143.47;2083163;28;20706;-62
2022/04/19 03:48:57;;;;;;;4.00;2.80;;;;;;;2.68;73.50;96129.06;2086224;28;20200;-62
2022/04/19 03:50:00;;;;;;;3.22;2.45;;;;;;;2.73;73.26;96137.47;2085679;28;20204;-62
2022/04/19 03:51:03;;;;;;;7.43;2.40;;;;;;;2.71;73.02;96141.03;2084892;28;20225;-62
2022/04/19 03:52:06;;;;;;;5.88;2.45;;;;;;;2.61;73.20;96126.81;2086102;28;20700;-62
2022/04/19 03:53:08;;;;;;;4.65;2.65;;;;;;;2.75;73.26;96139.97;2086652;28;20204;-62
2022/04/19 03:54:09;;;;;;;5.15;2.55;;;;;;;2.83;73.10;96145.66;2085683;28;20197;-62
2022/04/19 03:55:11;;;;;;;6.55;2.50;;;;;;;2.72;73.20;96135.75;2087262;28;20231;-64
2022/04/19 03:56:12;;;;;;;4.30;2.00;;;;;;;2.72;73.39;96145.28;2068313;28;20267;-67
2022/04/19 03:57:17;;;;;;;6.00;2.67;;;;;;;2.80;73.35;96143.19;2075974;28;20208;-67
2022/04/19 03:58:18;;;;;;;3.65;2.40;;;;;;;2.81;73.06;96144.88;2085409;28;20192;-67
2022/04/19 03:59:22;;;;;;;4.28;2.65;;;;;;;2.83;72.90;96147.41;2084820;28;20223;-67
2022/04/19 04:00:24;;;;;;;5.03;2.53;;;;;;;2.79;72.95;96145.84;2084729;28;20200;-67
2022/04/19 04:01:25;;;;;;;5.28;2.97;;;;;;;2.77;72.13;96130.41;2086800;28;20207;-67
2022/04/19 04:02:27;;;;;;;5.70;2.63;;;;;;;2.92;72.00;96147.81;2086147;28;20544;-67
2022/04/19 04:03:29;;;;;;;4.38;2.22;;;;;;;2.86;72.13;96137.75;2085269;28;20284;-67
2022/04/19 04:04:31;;;;;;;4.68;2.40;;;;;;;2.81;71.89;96141.47;2086674;28;20241;-67
2022/04/19 04:05:32;;;;;;;6.15;3.00;;;;;;;2.69;72.30;96140.25;2086509;28;22486;-67
2022/04/19 04:06:35;;;;;;;6.00;2.53;;;;;;;2.70;72.38;96137.59;2085837;28;20648;-67
2022/04/19 04:07:38;;;;;;;3.28;2.35;;;;;;;2.66;72.61;96145.56;2085610;28;20283;-67
2022/04/19 04:08:39;;;;;;;4.85;2.17;;;;;;;2.58;72.94;96156.22;2086066;28;20240;-67
2022/04/19 04:09:41;;;;;;;4.78;2.58;;;;;;;2.53;73.00;96128.00;2085827;28;20205;-67
2022/04/19 04:10:43;;;;;;;6.20;2.40;;;;;;;2.76;73.01;96152.00;2084261;28;20216;-67
2022/04/19 04:11:45;;;;;;;4.55;2.70;;;;;;;2.78;72.79;96147.59;2084018;28;20204;-67
2022/04/19 04:12:46;;;;;;;3.40;2.25;;;;;;;2.63;72.92;96137.94;2087135;28;20192;-67
2022/04/19 04:13:47;;;;;;;5.55;2.58;;;;;;;2.73;73.18;96152.13;2087914;28;20640;-67
2022/04/19 04:14:49;;;;;;;3.42;2.22;;;;;;;2.76;72.85;96152.00;2085345;28;20207;-67
2022/04/19 04:15:50;;;;;;;4.85;2.28;;;;;;;2.85;72.55;96149.00;2085857;28;20227;-67
2022/04/19 04:16:52;;;;;;;5.63;1.95;;;;;;;2.84;72.70;96152.47;2086295;28;20216;-67
2022/04/19 04:17:54;;;;;;;4.85;2.50;;;;;;;2.86;72.62;96144.66;2086544;28;20208;-67
2022/04/19 04:18:55;;;;;;;9.52;3.17;;;;;;;2.82;72.61;96150.88;2087388;28;20204;-67
2022/04/19 04:19:58;;;;;;;4.07;2.80;;;;;;;2.87;72.14;96142.00;2085969;28;20643;-67
2022/04/19 04:20:59;;;;;;;4.30;1.83;;;;;;;2.76;72.47;96142.50;2085992;28;20228;-67
2022/04/19 04:22:01;;;;;;;5.55;2.75;;;;;;;2.76;72.86;96155.44;2084686;28;20220;-67
2022/04/19 04:23:03;;;;;;;6.40;2.33;;;;;;;2.71;73.11;96149.63;2087647;28;20188;-67
2022/04/19 04:24:04;;;;;;;7.75;2.78;;;;;;;2.75;73.42;96153.75;2088546;28;20196;-67
2022/04/19 04:25:06;;;;;;;5.20;2.90;;;;;;;2.80;73.53;96152.69;2087052;28;20211;-67
2022/04/19 04:26:08;;;;;;;6.15;2.35;;;;;;;2.79;73.50;96157.03;2083332;28;20224;-67
2022/04/19 04:27:09;;;;;;;4.28;2.42;;;;;;;2.78;73.85;96157.94;2086564;28;20192;-67
2022/04/19 04:28:11;;;;;;;7.78;3.10;;;;;;;2.71;73.52;96149.63;2083673;28;20196;-67
2022/04/19 04:29:13;;;;;;;7.57;2.67;;;;;;;2.72;73.99;96153.03;2083503;28;20658;-67
2022/04/19 04:30:14;;;;;;;4.82;2.10;;;;;;;2.54;73.31;96118.50;2083664;28;20197;-67
2022/04/19 04:31:16;;;;;;;8.85;3.05;;;;;;;2.75;73.57;96150.31;2081431;28;20879;-67
2022/04/19 04:32:17;;;;;;;5.72;2.35;;;;;;;2.63;73.58;96151.72;2088293;28;20204;-67
2022/04/19 04:33:19;;;;;;;4.53;2.50;;;;;;;2.64;74.18;96157.72;2087160;28;20200;-67
2022/04/19 04:34:21;;;;;;;3.53;2.53;;;;;;;2.60;74.06;96161.34;2086297;28;20200;-67
2022/04/19 04:35:22;;;;;;;4.07;2.60;;;;;;;2.61;74.03;96160.41;2087119;28;20211;-67
2022/04/19 04:36:24;;;;;;;3.53;2.35;;;;;;;2.66;73.87;96158.47;2086548;28;20215;-67
2022/04/19 04:37:25;;;;;;;3.90;2.28;;;;;;;2.55;74.10;96161.56;2085513;28;20639;-67
2022/04/19 04:38:27;;;;;;;5.10;2.90;;;;;;;2.60;74.17;96157.00;2085740;28;20204;-67
2022/04/19 04:39:29;;;;;;;8.25;2.63;;;;;;;2.61;73.54;96148.34;2086450;28;20224;-67
2022/04/19 04:40:30;;;;;;;4.00;2.60;;;;;;;2.67;73.95;96157.59;2084844;28;20201;-67
2022/04/19 04:41:32;;;;;;;4.07;2.88;;;;;;;2.70;73.70;96153.09;2083362;28;20201;-67
2022/04/19 04:42:33;;;;;;;4.88;2.97;;;;;;;2.69;73.89;96160.94;2085479;28;20196;-67
2022/04/19 04:43:34;;;;;;;6.05;3.00;;;;;;;2.54;73.99;96142.59;2084992;28;20204;-68
2022/04/19 04:44:36;;;;;;;5.47;2.85;;;;;;;2.69;74.05;96164.38;2085390;28;20200;-67
2022/04/19 04:45:37;;;;;;;5.25;2.65;;;;;;;2.70;74.17;96165.19;2084077;28;20243;-67
2022/04/19 04:49:39;;;;;;;4.40;2.90;;;;;;;2.51;74.13;96165.16;2085804;28;20200;-67
2022/04/19 04:50:40;;;;;;;5.32;2.70;;;;;;;2.31;73.83;96137.59;2085815;28;20221;-67
2022/04/19 04:51:42;;;;;;;6.15;2.70;;;;;;;2.40;73.51;96154.47;2085312;28;20212;-67
2022/04/19 04:52:43;;;;;;;5.50;3.10;;;;;;;2.43;73.63;96162.06;2085412;28;20208;-67
2022/04/19 04:53:44;;;;;;;6.65;3.42;;;;;;;2.63;73.05;96161.22;2086436;28;20197;-67
2022/04/19 04:54:46;;;;;;;4.78;3.03;;;;;;;2.64;73.08;96155.97;2084490;28;20205;-67
2022/04/19 04:55:48;;;;;;;6.18;3.13;;;;;;;2.72;72.85;96145.28;2084574;28;20209;-67
2022/04/19 04:56:49;;;;;;;4.93;2.95;;;;;;;2.79;72.74;96138.09;2085358;28;20203;-67
2022/04/19 04:57:56;;;;;;;7.13;3.00;;;;;;;2.76;72.93;96158.03;2084643;28;20462;-67
2022/04/19 04:58:57;;;;;;;4.63;2.85;;;;;;;2.71;73.10;96159.97;2085178;28;20208;-67
2022/04/19 04:59:59;;;;;;;4.70;2.25;;;;;;;2.66;73.39;96141.22;2084546;28;20197;-67
2022/04/19 05:01:00;;;;;;;2.78;2.15;;;;;;;2.83;73.04;96152.56;2083941;28;20221;-67
2022/04/19 05:02:06;;;;;;;5.45;3.28;;;;;;;2.78;73.51;96152.75;2084712;28;20264;-67
2022/04/19 05:03:08;;;;;;;4.45;2.83;;;;;;;2.83;73.15;96148.22;2085188;28;20287;-67
2022/04/19 05:04:10;;;;;;;9.27;3.55;;;;;;;2.86;73.34;96158.44;2086199;28;20197;-67
2022/04/19 05:05:11;;;;;;;8.70;3.15;;;;;;;2.85;73.20;96155.94;2082208;28;20236;-67
2022/04/19 05:06:13;;;;;;;3.75;2.72;;;;;;;2.88;73.24;96161.81;2070886;28;20216;-67
2022/04/19 05:07:15;;;;;;;6.32;3.70;;;;;;;2.82;73.41;96162.06;2084487;28;20732;-67